createdAt,value
2022-11-19T00:01:51.042Z,76.59
2022-11-19T00:04:52.583Z,76.41
2022-11-19T00:07:54.074Z,76.49
2022-11-19T00:10:55.567Z,76.54
2022-11-19T00:13:57.067Z,76.42
2022-11-19T00:16:58.589Z,76.61
2022-11-19T00:20:00.152Z,76.11
2022-11-19T00:23:01.736Z,76.67
2022-11-19T00:26:11.537Z,76.48
2022-11-19T00:29:17.927Z,76.61
2022-11-19T00:32:19.834Z,76.50
2022-11-19T00:35:21.429Z,76.57
2022-11-19T00:38:22.919Z,76.49
2022-11-19T00:41:24.404Z,76.43
2022-11-19T00:44:25.928Z,76.45
2022-11-19T00:47:27.464Z,76.33
2022-11-19T00:50:31.233Z,76.40
2022-11-19T00:53:32.910Z,76.50
2022-11-19T00:56:34.426Z,76.50
2022-11-19T00:59:35.936Z,76.17
2022-11-19T01:02:37.446Z,76.46
2022-11-19T01:05:39.072Z,76.36
2022-11-19T01:08:40.585Z,76.47
2022-11-19T01:11:42.258Z,76.50
2022-11-19T01:14:43.742Z,76.31
2022-11-19T01:17:45.253Z,76.25
2022-11-19T01:20:47.438Z,76.23
2022-11-19T01:23:49.274Z,76.16
2022-11-19T01:26:50.775Z,76.12
2022-11-19T01:29:52.232Z,76.22
2022-11-19T01:32:54.054Z,76.17
2022-11-19T01:36:00.724Z,76.03
2022-11-19T01:39:02.200Z,76.01
2022-11-19T01:42:03.825Z,76.02
2022-11-19T01:45:07.443Z,76.04
2022-11-19T01:48:17.735Z,76.05
2022-11-19T01:51:27.054Z,75.94
2022-11-19T01:54:38.745Z,75.89
2022-11-19T01:57:41.042Z,75.79
2022-11-19T02:00:42.833Z,75.81
2022-11-19T02:03:44.780Z,75.68
2022-11-19T02:06:47.467Z,75.69
2022-11-19T02:09:49.373Z,75.77
2022-11-19T02:13:20.626Z,75.66
2022-11-19T02:16:48.502Z,75.62
2022-11-19T02:20:11.068Z,75.58
2022-11-19T02:23:24.711Z,75.50
2022-11-19T02:26:32.181Z,75.54
2022-11-19T02:29:56.407Z,75.60
2022-11-19T02:33:06.972Z,75.54
2022-11-19T02:36:20.677Z,75.52
2022-11-19T02:39:38.660Z,75.67
2022-11-19T02:42:56.720Z,75.65
2022-11-19T02:46:12.392Z,75.68
2022-11-19T02:49:15.379Z,75.76
2022-11-19T02:52:18.520Z,75.68
2022-11-19T02:55:21.886Z,75.83
2022-11-19T02:58:42.300Z,75.63
2022-11-19T03:02:05.108Z,75.47
2022-11-19T03:05:10.304Z,75.62
2022-11-19T03:08:11.871Z,75.50
2022-11-19T03:11:29.228Z,75.62
2022-11-19T03:14:59.667Z,75.44
2022-11-19T03:18:10.410Z,75.27
2022-11-19T03:21:21.353Z,75.43
2022-11-19T03:24:45.466Z,75.37
2022-11-19T03:27:53.646Z,75.29
2022-11-19T03:30:58.406Z,75.30
2022-11-19T03:34:03.938Z,75.27
2022-11-19T03:37:08.782Z,75.33
2022-11-19T03:40:12.525Z,75.26
2022-11-19T03:43:18.625Z,75.51
2022-11-19T03:46:23.498Z,75.69
2022-11-19T03:49:31.831Z,75.52
2022-11-19T03:52:33.725Z,75.61
2022-11-19T03:55:41.151Z,75.60
2022-11-19T03:58:46.892Z,75.55
2022-11-19T04:01:50.491Z,75.60
2022-11-19T04:04:59.557Z,75.68
2022-11-19T04:08:01.135Z,75.60
2022-11-19T04:14:03.108Z,75.44
2022-11-19T04:17:04.586Z,75.44
2022-11-19T04:20:07.398Z,75.46
2022-11-19T04:23:08.923Z,75.58
2022-11-19T04:26:10.472Z,75.52
2022-11-19T04:29:12.127Z,75.48
2022-11-19T04:32:13.630Z,75.43
2022-11-19T04:35:18.056Z,75.56
2022-11-19T04:38:19.638Z,75.65
2022-11-19T04:41:21.110Z,75.63
2022-11-19T04:44:22.772Z,75.66
2022-11-19T04:47:24.226Z,75.69
2022-11-19T04:50:25.802Z,75.80
2022-11-19T04:53:27.554Z,75.73
2022-11-19T04:56:29.039Z,75.61
2022-11-19T04:59:30.534Z,75.81
2022-11-19T05:02:32.015Z,75.87
2022-11-19T05:05:33.503Z,75.58
2022-11-19T05:08:34.996Z,75.71
2022-11-19T05:11:36.514Z,75.65
2022-11-19T05:14:38.606Z,75.75
2022-11-19T05:17:40.134Z,75.67
2022-11-19T05:20:41.801Z,75.80
2022-11-19T05:23:43.282Z,75.73
2022-11-19T05:26:44.812Z,75.79
2022-11-19T05:29:46.268Z,75.51
2022-11-19T05:32:48.099Z,75.63
2022-11-19T05:35:49.556Z,75.67
2022-11-19T05:38:51.015Z,75.72
2022-11-19T05:41:52.499Z,75.62
2022-11-19T05:44:53.992Z,75.88
2022-11-19T05:47:55.775Z,75.79
2022-11-19T05:50:57.316Z,75.95
2022-11-19T05:53:58.852Z,75.78
2022-11-19T05:57:00.412Z,75.84
2022-11-19T06:00:01.884Z,75.74
2022-11-19T06:03:13.861Z,75.64
2022-11-19T06:06:15.489Z,75.61
2022-11-19T06:09:17.298Z,75.12
2022-11-19T06:12:19.275Z,75.42
2022-11-19T06:15:20.816Z,75.27
2022-11-19T06:18:22.280Z,75.44
2022-11-19T06:21:23.767Z,75.45
2022-11-19T06:24:25.342Z,75.35
2022-11-19T06:27:26.823Z,75.27
2022-11-19T06:30:28.323Z,75.29
2022-11-19T06:33:29.800Z,75.11
2022-11-19T06:36:37.320Z,75.52
2022-11-19T06:39:41.906Z,75.57
2022-11-19T06:42:45.231Z,75.46
2022-11-19T06:45:49.885Z,75.46
2022-11-19T06:48:51.374Z,75.44
2022-11-19T06:51:52.901Z,75.26
2022-11-19T06:54:54.598Z,75.25
2022-11-19T06:57:57.593Z,75.29
2022-11-19T07:00:59.334Z,75.21
2022-11-19T07:04:00.912Z,75.24
2022-11-19T07:07:02.502Z,75.22
2022-11-19T07:10:04.390Z,75.17
2022-11-19T07:13:06.174Z,75.09
2022-11-19T07:16:07.895Z,75.06
2022-11-19T07:19:09.822Z,75.03
2022-11-19T07:22:11.469Z,75.03
2022-11-19T07:25:13.213Z,74.94
2022-11-19T07:28:14.869Z,75.00
2022-11-19T07:31:16.412Z,74.91
2022-11-19T07:34:17.994Z,74.80
2022-11-19T07:37:19.539Z,74.76
2022-11-19T07:40:21.026Z,74.86
2022-11-19T07:43:23.474Z,74.87
2022-11-19T07:46:25.074Z,75.00
2022-11-19T07:49:26.848Z,75.04
2022-11-19T07:52:28.387Z,74.92
2022-11-19T07:55:29.954Z,75.18
2022-11-19T07:58:31.421Z,74.92
2022-11-19T08:01:33.098Z,74.98
2022-11-19T08:04:34.646Z,75.04
2022-11-19T08:07:39.636Z,74.99
2022-11-19T08:10:41.200Z,75.01
2022-11-19T08:13:43.148Z,74.97
2022-11-19T08:17:03.332Z,75.04
2022-11-19T08:20:05.358Z,74.90
2022-11-19T08:23:07.145Z,74.88
2022-11-19T08:26:08.791Z,74.73
2022-11-19T08:29:16.253Z,74.79
2022-11-19T08:32:18.079Z,74.66
2022-11-19T08:35:19.560Z,74.66
2022-11-19T08:38:21.012Z,74.46
2022-11-19T08:41:41.187Z,74.75
2022-11-19T08:44:42.745Z,74.69
2022-11-19T08:47:44.255Z,74.56
2022-11-19T08:50:45.842Z,74.44
2022-11-19T08:53:47.383Z,74.53
2022-11-19T08:56:49.014Z,74.44
2022-11-19T08:59:50.562Z,74.48
2022-11-19T09:02:52.082Z,74.44
2022-11-19T09:06:00.274Z,74.31
2022-11-19T09:09:03.479Z,74.47
2022-11-19T09:12:05.245Z,74.48
2022-11-19T09:15:08.208Z,74.36
2022-11-19T09:18:09.704Z,74.55
2022-11-19T09:21:11.796Z,74.56
2022-11-19T09:24:13.261Z,74.75
2022-11-19T09:27:14.867Z,74.50
2022-11-19T09:30:16.561Z,74.55
2022-11-19T09:33:18.065Z,74.65
2022-11-19T09:36:20.576Z,74.61
2022-11-19T09:39:22.047Z,74.74
2022-11-19T09:42:26.475Z,74.73
2022-11-19T09:45:40.621Z,74.79
2022-11-19T09:48:42.201Z,74.95
2022-11-19T09:51:51.326Z,74.87
2022-11-19T09:54:56.660Z,74.97
2022-11-19T09:57:59.875Z,75.09
2022-11-19T10:01:01.457Z,75.01
2022-11-19T10:04:04.259Z,75.14
2022-11-19T10:07:24.368Z,75.10
2022-11-19T10:10:47.092Z,75.08
2022-11-19T10:14:13.218Z,75.11
2022-11-19T10:17:24.097Z,75.08
2022-11-19T10:20:47.473Z,75.05
2022-11-19T10:24:17.851Z,75.22
2022-11-19T10:27:29.590Z,75.25
2022-11-19T10:30:31.249Z,75.20
2022-11-19T10:33:42.023Z,75.29
2022-11-19T10:36:48.465Z,75.32
2022-11-19T10:39:52.125Z,75.44
2022-11-19T10:43:09.018Z,75.31
2022-11-19T10:46:12.206Z,75.23
2022-11-19T10:49:13.683Z,75.23
2022-11-19T10:52:34.038Z,75.25
2022-11-19T10:55:37.930Z,75.16
2022-11-19T10:58:45.061Z,75.55
2022-11-19T11:01:50.494Z,75.35
2022-11-19T11:05:11.516Z,75.32
2022-11-19T11:08:12.991Z,75.49
2022-11-19T11:11:49.776Z,75.46
2022-11-19T11:15:19.329Z,75.24
2022-11-19T11:18:26.857Z,75.58
2022-11-19T11:21:28.244Z,75.47
2022-11-19T11:24:36.432Z,75.43
2022-11-19T11:27:37.943Z,75.59
2022-11-19T11:30:58.895Z,75.52
2022-11-19T11:34:02.248Z,75.49
2022-11-19T11:37:06.362Z,75.65
2022-11-19T11:40:19.450Z,75.55
2022-11-19T11:43:21.245Z,75.72
2022-11-19T11:46:22.742Z,75.57
2022-11-19T11:49:36.460Z,75.48
2022-11-19T11:52:45.350Z,75.49
2022-11-19T11:55:57.120Z,75.34
2022-11-19T11:59:13.751Z,75.35
2022-11-19T12:02:32.393Z,75.40
2022-11-19T12:06:08.571Z,75.32
2022-11-19T12:09:28.917Z,75.19
2022-11-19T12:12:56.320Z,75.35
2022-11-19T12:16:03.748Z,75.24
2022-11-19T12:19:05.088Z,75.16
2022-11-19T12:22:27.922Z,75.14
2022-11-19T12:25:54.383Z,74.97
2022-11-19T12:29:20.433Z,74.95
2022-11-19T12:32:47.045Z,74.91
2022-11-19T12:36:16.837Z,74.92
2022-11-19T12:39:35.934Z,74.89
2022-11-19T12:42:54.272Z,74.85
2022-11-19T12:46:07.764Z,75.01
2022-11-19T12:49:27.415Z,74.58
2022-11-19T12:52:28.826Z,74.84
2022-11-19T12:55:39.000Z,74.70
2022-11-19T12:58:58.789Z,74.77
2022-11-19T13:02:04.313Z,74.65
2022-11-19T13:05:20.293Z,74.68
2022-11-19T13:08:32.394Z,74.48
2022-11-19T13:11:38.212Z,74.48
2022-11-19T13:14:44.551Z,74.48
2022-11-19T13:17:51.740Z,74.42
2022-11-19T13:21:01.530Z,74.51
2022-11-19T13:24:29.550Z,74.39
2022-11-19T13:27:31.999Z,74.29
2022-11-19T13:30:34.710Z,74.25
2022-11-19T13:33:47.851Z,74.20
2022-11-19T13:37:02.180Z,74.32
2022-11-19T13:40:16.446Z,74.17
2022-11-19T13:43:38.947Z,74.06
2022-11-19T13:46:49.527Z,73.99
2022-11-19T13:50:06.864Z,74.19
2022-11-19T13:53:26.249Z,73.98
2022-11-19T13:56:47.527Z,74.04
2022-11-19T13:59:49.917Z,73.84
2022-11-19T14:03:15.761Z,74.00
2022-11-19T14:06:44.642Z,73.85
2022-11-19T14:09:55.327Z,73.86
2022-11-19T14:13:21.241Z,73.83
2022-11-19T14:16:56.614Z,73.81
2022-11-19T14:20:16.943Z,73.83
2022-11-19T14:24:06.947Z,73.70
2022-11-19T14:27:30.497Z,73.76
2022-11-19T14:31:01.145Z,73.72
2022-11-19T14:34:04.130Z,73.76
2022-11-19T14:37:26.128Z,73.73
2022-11-19T14:40:33.224Z,73.65
2022-11-19T14:44:08.782Z,73.73
2022-11-19T14:47:22.385Z,73.74
2022-11-19T14:50:23.798Z,73.71
2022-11-19T14:53:25.411Z,73.71
2022-11-19T14:56:27.637Z,73.64
2022-11-19T14:59:34.390Z,73.75
2022-11-19T15:02:45.670Z,73.70
2022-11-19T15:05:47.684Z,73.56
2022-11-19T15:08:56.818Z,73.75
2022-11-19T15:12:00.963Z,73.74
2022-11-19T15:15:20.541Z,73.51
2022-11-19T15:18:28.066Z,73.60
2022-11-19T15:21:38.825Z,73.47
2022-11-19T15:24:55.386Z,73.39
2022-11-19T15:28:26.143Z,73.65
2022-11-19T15:31:47.317Z,73.61
2022-11-19T15:38:18.539Z,73.79
2022-11-19T15:41:24.369Z,73.94
2022-11-19T15:45:00.565Z,73.93
2022-11-19T15:48:28.473Z,73.81
2022-11-19T15:51:37.955Z,73.72
2022-11-19T15:54:43.511Z,73.77
2022-11-19T15:57:48.536Z,73.71
2022-11-19T16:00:53.740Z,73.70
2022-11-19T16:03:55.744Z,73.70
2022-11-19T16:06:57.299Z,73.63
2022-11-19T16:10:00.224Z,73.31
2022-11-19T16:13:22.547Z,73.31
2022-11-19T16:16:46.035Z,73.20
2022-11-19T16:20:09.474Z,73.09
2022-11-19T16:23:14.255Z,73.17
2022-11-19T16:26:15.895Z,72.98
2022-11-19T16:29:21.694Z,72.93
2022-11-19T16:32:26.006Z,73.04
2022-11-19T16:35:31.914Z,73.09
2022-11-19T16:38:33.662Z,72.93
2022-11-19T16:41:53.970Z,72.97
2022-11-19T16:45:04.673Z,73.15
2022-11-19T16:48:06.259Z,73.18
2022-11-19T16:51:26.314Z,72.94
2022-11-19T16:54:49.027Z,72.99
2022-11-19T16:58:02.398Z,72.98
2022-11-19T17:01:04.111Z,72.84
2022-11-19T17:04:07.799Z,72.95
2022-11-19T17:07:14.359Z,72.81
2022-11-19T17:10:18.709Z,72.90
2022-11-19T17:13:32.228Z,73.06
2022-11-19T17:16:35.273Z,73.18
2022-11-19T17:19:36.967Z,73.10
2022-11-19T17:22:39.713Z,73.31
2022-11-19T17:25:48.956Z,73.35
2022-11-19T17:28:56.110Z,73.20
2022-11-19T17:31:57.790Z,73.19
2022-11-19T17:34:59.315Z,73.31
2022-11-19T17:38:10.053Z,73.35
2022-11-19T17:41:37.303Z,73.38
2022-11-19T17:44:39.738Z,73.44
2022-11-19T17:47:41.254Z,73.73
2022-11-19T17:50:42.755Z,73.67
2022-11-19T17:53:44.311Z,73.96
2022-11-19T17:56:45.860Z,73.76
2022-11-19T17:59:47.364Z,74.18
2022-11-19T18:02:48.906Z,74.26
2022-11-19T18:05:50.674Z,74.42
2022-11-19T18:08:52.190Z,74.69
2022-11-19T18:11:53.638Z,74.94
2022-11-19T18:14:59.304Z,74.84
2022-11-19T18:18:03.504Z,74.95
2022-11-19T18:21:05.092Z,75.00
2022-11-19T18:24:10.299Z,75.05
2022-11-19T18:27:11.766Z,74.96
2022-11-19T18:30:14.249Z,74.91
2022-11-19T18:33:15.836Z,74.94
2022-11-19T18:36:18.055Z,75.00
2022-11-19T18:39:20.002Z,74.83
2022-11-19T18:42:22.141Z,74.71
2022-11-19T18:45:23.702Z,74.64
2022-11-19T18:48:25.198Z,74.49
2022-11-19T18:51:30.116Z,74.45
2022-11-19T18:54:31.730Z,74.50
2022-11-19T18:57:33.223Z,74.24
2022-11-19T19:00:34.952Z,74.49
2022-11-19T19:03:36.965Z,74.60
2022-11-19T19:06:39.465Z,74.46
2022-11-19T19:09:41.027Z,74.50
2022-11-19T19:12:42.511Z,74.55
2022-11-19T19:15:43.991Z,74.40
2022-11-19T19:18:45.535Z,74.29
2022-11-19T19:21:47.475Z,74.29
2022-11-19T19:24:50.752Z,74.21
2022-11-19T19:27:54.120Z,74.26
2022-11-19T19:30:59.247Z,74.18
2022-11-19T19:34:01.284Z,74.22
2022-11-19T19:37:04.151Z,74.18
2022-11-19T19:40:06.466Z,74.04
2022-11-19T19:43:08.047Z,74.20
2022-11-19T19:46:16.183Z,74.05
2022-11-19T19:49:17.706Z,73.89
2022-11-19T19:52:19.223Z,73.60
2022-11-19T19:55:20.802Z,73.75
2022-11-19T19:58:27.904Z,73.77
2022-11-19T20:01:34.908Z,73.72
2022-11-19T20:04:36.428Z,73.69
2022-11-19T20:07:38.004Z,73.62
2022-11-19T20:10:39.511Z,73.53
2022-11-19T20:13:41.549Z,73.61
2022-11-19T20:16:43.209Z,73.53
2022-11-19T20:19:44.693Z,73.61
2022-11-19T20:22:46.202Z,73.58
2022-11-19T20:25:47.775Z,73.75
2022-11-19T20:28:57.235Z,73.46
2022-11-19T20:31:59.034Z,73.48
2022-11-19T20:35:00.606Z,73.60
2022-11-19T20:38:03.677Z,73.53
2022-11-19T20:41:07.297Z,73.59
2022-11-19T20:44:21.276Z,73.78
2022-11-19T20:47:23.066Z,73.70
2022-11-19T20:50:24.565Z,73.52
2022-11-19T20:53:26.047Z,73.54
2022-11-19T20:56:27.532Z,73.43
2022-11-19T20:59:29.783Z,73.76
2022-11-19T21:02:31.339Z,73.65
2022-11-19T21:05:32.897Z,73.42
2022-11-19T21:08:35.873Z,73.77
2022-11-19T21:11:37.713Z,73.77
2022-11-19T21:14:39.212Z,73.48
2022-11-19T21:17:40.688Z,73.04
2022-11-19T21:20:42.139Z,73.58
2022-11-19T21:23:43.870Z,73.64
2022-11-19T21:26:45.445Z,73.46
2022-11-19T21:29:47.908Z,73.51
2022-11-19T21:32:49.412Z,73.67
2022-11-19T21:35:50.917Z,73.05
2022-11-19T21:38:52.375Z,73.47
2022-11-19T21:41:53.916Z,73.41
2022-11-19T21:44:55.395Z,73.06
2022-11-19T21:47:57.194Z,73.09
2022-11-19T21:50:58.785Z,73.10
2022-11-19T21:54:00.350Z,73.21
2022-11-19T21:57:01.889Z,73.28
2022-11-19T22:00:05.338Z,73.29
2022-11-19T22:03:14.635Z,73.34
2022-11-19T22:06:16.236Z,73.32
2022-11-19T22:09:17.909Z,73.04
2022-11-19T22:12:19.531Z,73.64
2022-11-19T22:15:21.010Z,73.47
2022-11-19T22:18:22.481Z,73.17
2022-11-19T22:21:24.005Z,73.35
2022-11-19T22:24:25.498Z,73.60
2022-11-19T22:27:29.229Z,73.42
2022-11-19T22:30:30.704Z,73.73
2022-11-19T22:33:34.021Z,73.64
2022-11-19T22:36:35.501Z,73.74
2022-11-19T22:39:36.982Z,73.57
2022-11-19T22:42:38.445Z,73.68
2022-11-19T22:45:44.888Z,73.75
2022-11-19T22:48:46.522Z,73.46
2022-11-19T22:51:49.251Z,73.66
2022-11-19T22:54:50.711Z,73.37
2022-11-19T22:57:52.204Z,73.34
2022-11-19T23:00:53.723Z,73.27
2022-11-19T23:03:56.833Z,73.44
2022-11-19T23:06:58.392Z,73.26
2022-11-19T23:10:00.613Z,73.40
2022-11-19T23:13:21.972Z,73.41
2022-11-19T23:16:23.426Z,73.49
2022-11-19T23:19:24.924Z,73.29
2022-11-19T23:22:26.366Z,73.14
2022-11-19T23:25:27.830Z,73.48
2022-11-19T23:28:31.278Z,73.45
2022-11-19T23:31:40.036Z,73.21
2022-11-19T23:34:41.526Z,73.12
2022-11-19T23:37:43.014Z,73.49
2022-11-19T23:40:44.523Z,73.30
2022-11-19T23:43:47.091Z,73.34
2022-11-19T23:46:48.626Z,73.41
2022-11-19T23:49:50.100Z,73.38
2022-11-19T23:52:51.591Z,73.28
2022-11-19T23:55:53.069Z,68.62
2022-11-19T23:58:54.634Z,61.11
